sensor_id;sensor_type;location;lat;lon;timestamp;pressure;altitude;pressure_sealevel;temperature;humidity
3832;BME280;12460;42.662;23.288;2023-02-20T00:00:34;94841.59;;;12.05;47.31
3832;BME280;12460;42.662;23.288;2023-02-20T00:15:40;94824.00;;;11.97;48.26
3832;BME280;12460;42.662;23.288;2023-02-20T00:30:45;94835.19;;;11.80;49.01
3832;BME280;12460;42.662;23.288;2023-02-20T00:45:49;94815.16;;;11.68;49.27
3832;BME280;12460;42.662;23.288;2023-02-20T01:00:54;94848.44;;;11.55;49.24
3832;BME280;12460;42.662;23.288;2023-02-20T01:15:58;94871.66;;;11.31;50.16
3832;BME280;12460;42.662;23.288;2023-02-20T01:31:03;94884.41;;;11.24;51.05
3832;BME280;12460;42.662;23.288;2023-02-20T02:01:32;94918.00;;;11.30;52.54
3832;BME280;12460;42.662;23.288;2023-02-20T02:47:46;94949.22;;;10.71;51.51
3832;BME280;12460;42.662;23.288;2023-02-20T03:02:57;94936.09;;;10.51;51.71
3832;BME280;12460;42.662;23.288;2023-02-20T03:33:41;94981.19;;;10.15;52.22
3832;BME280;12460;42.662;23.288;2023-02-20T03:49:11;94988.78;;;10.00;52.07
3832;BME280;12460;42.662;23.288;2023-02-20T04:04:25;95024.13;;;9.88;52.00
3832;BME280;12460;42.662;23.288;2023-02-20T04:19:33;95004.31;;;9.93;51.58
3832;BME280;12460;42.662;23.288;2023-02-20T04:34:39;95028.91;;;10.08;51.72
3832;BME280;12460;42.662;23.288;2023-02-20T04:49:46;95016.31;;;9.94;51.09
3832;BME280;12460;42.662;23.288;2023-02-20T05:04:56;95043.34;;;9.68;50.46
3832;BME280;12460;42.662;23.288;2023-02-20T05:20:00;95065.88;;;9.48;49.31
3832;BME280;12460;42.662;23.288;2023-02-20T05:35:05;95092.38;;;9.67;48.88
3832;BME280;12460;42.662;23.288;2023-02-20T05:50:08;95092.09;;;10.80;47.92
3832;BME280;12460;42.662;23.288;2023-02-20T06:05:13;95074.31;;;14.62;39.72
3832;BME280;12460;42.662;23.288;2023-02-20T06:20:17;95117.84;;;14.84;37.51
3832;BME280;12460;42.662;23.288;2023-02-20T06:35:21;95097.66;;;16.16;35.87
3832;BME280;12460;42.662;23.288;2023-02-20T07:06:51;95134.16;;;14.08;36.63
3832;BME280;12460;42.662;23.288;2023-02-20T07:21:55;95146.88;;;15.28;33.69
3832;BME280;12460;42.662;23.288;2023-02-20T07:37:00;95148.47;;;14.95;32.96
3832;BME280;12460;42.662;23.288;2023-02-20T07:52:05;95171.66;;;15.11;31.83
3832;BME280;12460;42.662;23.288;2023-02-20T08:07:10;95197.09;;;16.73;29.34
3832;BME280;12460;42.662;23.288;2023-02-20T08:22:16;95191.66;;;18.03;27.63
3832;BME280;12460;42.662;23.288;2023-02-20T08:37:20;95190.34;;;18.56;27.29
3832;BME280;12460;42.662;23.288;2023-02-20T08:52:25;95190.94;;;19.51;26.08
3832;BME280;12460;42.662;23.288;2023-02-20T09:07:29;95171.84;;;19.54;25.43
3832;BME280;12460;42.662;23.288;2023-02-20T09:22:34;95178.97;;;19.99;24.81
3832;BME280;12460;42.662;23.288;2023-02-20T09:37:38;95172.94;;;20.28;24.98
3832;BME280;12460;42.662;23.288;2023-02-20T09:52:45;95159.97;;;20.61;24.45
3832;BME280;12460;42.662;23.288;2023-02-20T10:07:57;95163.19;;;20.67;23.39
3832;BME280;12460;42.662;23.288;2023-02-20T10:23:11;95177.16;;;20.98;22.57
3832;BME280;12460;42.662;23.288;2023-02-20T10:38:21;95133.22;;;21.17;21.10
3832;BME280;12460;42.662;23.288;2023-02-20T11:08:50;95139.59;;;21.04;22.35
3832;BME280;12460;42.662;23.288;2023-02-20T11:23:55;95117.31;;;21.14;22.69
3832;BME280;12460;42.662;23.288;2023-02-20T11:39:03;95091.22;;;20.71;23.09
3832;BME280;12460;42.662;23.288;2023-02-20T11:54:22;95101.75;;;19.97;23.76
3832;BME280;12460;42.662;23.288;2023-02-20T12:09:29;95077.94;;;19.92;23.33
3832;BME280;12460;42.662;23.288;2023-02-20T12:24:54;95082.28;;;19.47;23.71
3832;BME280;12460;42.662;23.288;2023-02-20T13:11:12;95069.19;;;17.61;26.86
3832;BME280;12460;42.662;23.288;2023-02-20T13:41:58;95087.25;;;15.72;29.10
3832;BME280;12460;42.662;23.288;2023-02-20T13:57:16;95108.59;;;14.84;30.81
3832;BME280;12460;42.662;23.288;2023-02-20T14:12:21;95088.00;;;14.39;32.27
3832;BME280;12460;42.662;23.288;2023-02-20T14:27:29;95114.06;;;14.38;32.85
3832;BME280;12460;42.662;23.288;2023-02-20T14:42:38;95119.38;;;13.75;34.55
3832;BME280;12460;42.662;23.288;2023-02-20T14:57:44;95128.97;;;13.55;34.17
3832;BME280;12460;42.662;23.288;2023-02-20T15:13:00;95157.28;;;13.47;34.62
3832;BME280;12460;42.662;23.288;2023-02-20T15:43:23;95155.38;;;12.78;36.63
3832;BME280;12460;42.662;23.288;2023-02-20T15:58:49;95129.44;;;12.32;37.63
3832;BME280;12460;42.662;23.288;2023-02-20T16:13:58;95162.97;;;11.90;38.69
3832;BME280;12460;42.662;23.288;2023-02-20T16:29:10;95166.13;;;11.56;39.95
3832;BME280;12460;42.662;23.288;2023-02-20T16:44:39;95179.47;;;11.33;39.97
3832;BME280;12460;42.662;23.288;2023-02-20T16:59:48;95180.16;;;11.11;40.41
3832;BME280;12460;42.662;23.288;2023-02-20T17:14:53;95186.31;;;10.94;40.74
3832;BME280;12460;42.662;23.288;2023-02-20T17:29:57;95187.59;;;10.86;40.88
3832;BME280;12460;42.662;23.288;2023-02-20T17:45:02;95207.97;;;10.71;42.09
3832;BME280;12460;42.662;23.288;2023-02-20T18:00:08;95189.72;;;10.57;42.25
3832;BME280;12460;42.662;23.288;2023-02-20T18:15:12;95190.09;;;10.53;41.90
3832;BME280;12460;42.662;23.288;2023-02-20T18:30:19;95167.03;;;10.47;42.23
3832;BME280;12460;42.662;23.288;2023-02-20T18:45:23;95143.81;;;10.19;42.66
3832;BME280;12460;42.662;23.288;2023-02-20T19:00:29;95157.75;;;10.04;43.19
3832;BME280;12460;42.662;23.288;2023-02-20T19:15:33;95116.09;;;9.95;43.22
3832;BME280;12460;42.662;23.288;2023-02-20T19:30:37;95101.69;;;9.91;43.49
3832;BME280;12460;42.662;23.288;2023-02-20T19:45:42;95102.88;;;10.03;41.93
3832;BME280;12460;42.662;23.288;2023-02-20T20:00:47;95067.75;;;10.17;40.99
3832;BME280;12460;42.662;23.288;2023-02-20T20:15:52;95071.31;;;10.17;40.84
3832;BME280;12460;42.662;23.288;2023-02-20T20:30:56;95054.13;;;10.28;41.28
3832;BME280;12460;42.662;23.288;2023-02-20T20:46:02;95024.16;;;10.38;39.88
3832;BME280;12460;42.662;23.288;2023-02-20T21:01:07;95004.69;;;10.56;39.24
3832;BME280;12460;42.662;23.288;2023-02-20T21:16:11;95013.34;;;10.65;39.40
3832;BME280;12460;42.662;23.288;2023-02-20T21:31:16;94987.47;;;10.67;39.16
3832;BME280;12460;42.662;23.288;2023-02-20T21:46:20;94986.91;;;10.68;39.17
3832;BME280;12460;42.662;23.288;2023-02-20T22:01:26;94972.84;;;10.91;38.48
3832;BME280;12460;42.662;23.288;2023-02-20T22:16:30;94971.44;;;9.30;44.06
3832;BME280;12460;42.662;23.288;2023-02-20T22:31:54;94966.41;;;7.97;47.31
3832;BME280;12460;42.662;23.288;2023-02-20T22:47:16;94964.38;;;7.50;48.54
3832;BME280;12460;42.662;23.288;2023-02-20T23:02:39;94958.81;;;6.85;51.48
3832;BME280;12460;42.662;23.288;2023-02-20T23:18:03;94981.44;;;6.42;52.89
3832;BME280;12460;42.662;23.288;2023-02-20T23:33:27;94941.59;;;6.55;52.55
3832;BME280;12460;42.662;23.288;2023-02-20T23:48:50;94907.94;;;6.34;52.99
